Time;durP1;ratioP1;P1;durP2;ratioP2;P2;SDS_P1;SDS_P2;PMS_P1;PMS_P2;Temp;Humidity;BMP_temperature;BMP_pressure;BME280_temperature;BME280_humidity;BME280_pressure;Samples;Min_cycle;Max_cycle;Signal;HPM_P1;HPM_P2
2022/11/19 00:01:04;;;;;;;;;;;;;;;8.89;56.20;97971.78;4514588;31;34809;-88
2022/11/19 00:03:33;;;;;;;;;;;;;;;9.85;53.78;97979.41;4503851;31;34226;-85
2022/11/19 00:06:06;;;;;;;;;;;;;;;9.75;53.56;97977.72;4484614;31;32843;-86
2022/11/19 00:08:34;;;;;;;;;;;;;;;9.91;53.19;97988.87;4500461;31;34342;-85
2022/11/19 00:11:11;;;;;;;;;;;;;;;9.52;53.92;97979.50;4511944;31;33694;-86
2022/11/19 00:13:39;;;;;;;;;;;;;;;9.69;53.00;97985.47;4502001;31;33488;-85
2022/11/19 00:16:07;;;;;;;;;;;;;;;8.31;56.45;97992.34;4510814;31;33834;-86
2022/11/19 00:18:34;;;;;;;;;;;;;;;9.33;54.50;97994.19;4498617;31;34226;-86
2022/11/19 00:21:11;;;;;;;;;;;;;;;9.41;54.17;98005.38;4511756;31;34634;-86
2022/11/19 00:23:38;;;;;;;;;;;;;;;8.76;55.78;98005.38;4509245;31;33161;-86
2022/11/19 00:26:13;;;;;;;;;;;;;;;8.08;57.64;98016.38;4508381;31;35044;-86
2022/11/19 00:28:40;;;;;;;;;;;;;;;7.57;59.42;98017.81;4514991;31;35029;-85
2022/11/19 00:31:09;;;;;;;;;;;;;;;8.63;56.60;98021.72;4506338;31;34125;-85
2022/11/19 00:33:37;;;;;;;;;;;;;;;7.13;59.80;98020.09;4511075;31;32034;-86
2022/11/19 00:36:04;;;;;;;;;;;;;;;7.57;59.03;98023.81;4514720;31;34179;-85
2022/11/19 00:38:32;;;;;;;;;;;;;;;7.60;59.06;98012.66;4512998;31;35202;-86
2022/11/19 00:40:59;;;;;;;;;;;;;;;7.49;59.74;98016.91;4507730;31;35059;-86
2022/11/19 00:46:16;;;;;;;;;;;;;;;7.57;59.28;98020.37;4498555;31;33948;-86
2022/11/19 00:48:44;;;;;;;;;;;;;;;8.26;56.99;98021.59;4497442;31;34469;-86
2022/11/19 00:51:11;;;;;;;;;;;;;;;7.63;59.01;98027.31;4497145;31;35100;-86
2022/11/19 00:53:39;;;;;;;;;;;;;;;7.26;59.66;98027.91;4498792;31;34267;-86
2022/11/19 00:56:07;;;;;;;;;;;;;;;7.75;58.05;98033.41;4479053;31;934087;-86
2022/11/19 00:58:34;;;;;;;;;;;;;;;7.19;59.14;98041.59;4502082;31;34156;-87
2022/11/19 01:01:02;;;;;;;;;;;;;;;7.43;59.13;98055.56;4500068;31;33903;-86
2022/11/19 01:03:29;;;;;;;;;;;;;;;7.47;58.37;98065.03;4498514;31;33084;-87
2022/11/19 01:05:56;;;;;;;;;;;;;;;7.58;58.57;98063.41;4511919;31;34272;-87
2022/11/19 01:08:24;;;;;;;;;;;;;;;8.53;55.48;98079.41;4515282;31;35097;-87
2022/11/19 01:10:51;;;;;;;;;;;;;;;9.04;53.94;98090.72;4515320;31;34008;-86
2022/11/19 01:13:33;;;;;;;;;;;;;;;9.46;52.58;98091.59;4509997;31;33193;-87
2022/11/19 01:16:02;;;;;;;;;;;;;;;10.00;50.88;98082.06;4510663;31;32188;-87
2022/11/19 01:18:29;;;;;;;;;;;;;;;8.89;53.39;98098.44;4513666;31;35087;-86
2022/11/19 01:20:56;;;;;;;;;;;;;;;9.10;52.94;98101.06;4515480;31;34692;-85
2022/11/19 01:23:23;;;;;;;;;;;;;;;7.67;56.58;98112.47;4505503;31;31919;-86
2022/11/19 01:25:51;;;;;;;;;;;;;;;8.63;54.15;98119.88;4507414;31;33435;-86
2022/11/19 01:28:18;;;;;;;;;;;;;;;9.13;51.63;98116.59;4510543;31;35005;-87
2022/11/19 01:30:45;;;;;;;;;;;;;;;8.08;54.66;98129.94;4511881;31;33916;-87
2022/11/19 01:33:12;;;;;;;;;;;;;;;7.65;56.19;98127.06;4504160;31;32980;-86
2022/11/19 01:35:58;;;;;;;;;;;;;;;8.64;53.49;98125.94;4510490;31;35603;-86
2022/11/19 01:38:26;;;;;;;;;;;;;;;8.62;53.05;98117.31;4514649;31;34368;-87
2022/11/19 01:40:54;;;;;;;;;;;;;;;8.42;53.52;98115.53;4515013;31;34343;-86
2022/11/19 01:43:40;;;;;;;;;;;;;;;8.01;53.85;98110.09;4509034;31;33515;-86
2022/11/19 01:46:07;;;;;;;;;;;;;;;7.03;57.08;98127.38;4510587;31;35489;-86
2022/11/19 01:48:35;;;;;;;;;;;;;;;8.04;54.04;98121.31;4514252;31;33553;-87
2022/11/19 01:51:04;;;;;;;;;;;;;;;8.29;53.32;98130.03;4513341;31;35097;-86
2022/11/19 01:53:31;;;;;;;;;;;;;;;8.19;53.26;98130.88;4498912;31;34081;-87
2022/11/19 01:56:02;;;;;;;;;;;;;;;8.74;51.81;98138.03;4497626;31;33926;-86
2022/11/19 01:58:30;;;;;;;;;;;;;;;8.48;52.63;98136.19;4497834;31;33994;-87
2022/11/19 02:00:58;;;;;;;;;;;;;;;8.53;52.58;98143.97;4498808;31;33551;-87
2022/11/19 02:03:29;;;;;;;;;;;;;;;9.15;50.65;98145.91;4513123;31;33193;-87
2022/11/19 02:05:56;;;;;;;;;;;;;;;8.79;51.47;98162.19;4513422;31;33921;-87
2022/11/19 02:08:34;;;;;;;;;;;;;;;8.31;52.81;98168.81;4514845;31;34159;-87
2022/11/19 02:11:20;;;;;;;;;;;;;;;7.76;53.90;98182.16;4514055;31;34118;-87
2022/11/19 02:13:57;;;;;;;;;;;;;;;7.97;53.39;98181.50;4514386;31;33430;-87
2022/11/19 02:16:38;;;;;;;;;;;;;;;7.90;53.37;98181.44;4511597;31;34924;-87
2022/11/19 02:19:26;;;;;;;;;;;;;;;8.80;51.20;98188.88;4494419;31;34355;-87
2022/11/19 02:21:56;;;;;;;;;;;;;;;8.23;52.67;98176.50;4497634;31;33745;-87
2022/11/19 02:24:41;;;;;;;;;;;;;;;9.21;50.38;98176.09;4501746;31;33923;-85
2022/11/19 02:27:17;;;;;;;;;;;;;;;8.97;50.56;98171.69;4503190;31;34180;-86
2022/11/19 02:29:47;;;;;;;;;;;;;;;9.48;48.98;98178.72;4509935;31;34579;-87
2022/11/19 02:32:15;;;;;;;;;;;;;;;9.85;48.26;98188.22;4511214;31;35057;-86
2022/11/19 02:34:45;;;;;;;;;;;;;;;9.85;47.95;98202.03;4498467;31;33564;-86
2022/11/19 02:37:16;;;;;;;;;;;;;;;9.55;48.60;98213.22;4508873;31;33929;-87
2022/11/19 02:39:47;;;;;;;;;;;;;;;10.35;46.53;98219.28;4498738;31;34809;-87
2022/11/19 02:42:21;;;;;;;;;;;;;;;10.65;45.96;98226.16;4504640;31;33904;-87
2022/11/19 02:44:59;;;;;;;;;;;;;;;10.25;46.28;98233.13;4498047;31;33551;-86
2022/11/19 02:47:29;;;;;;;;;;;;;;;9.99;46.65;98243.44;4506925;31;33943;-86
2022/11/19 02:49:58;;;;;;;;;;;;;;;10.40;45.31;98245.19;4510818;31;33919;-87
2022/11/19 02:52:25;;;;;;;;;;;;;;;8.82;48.26;98244.88;4508476;31;33940;-87
2022/11/19 02:54:52;;;;;;;;;;;;;;;7.82;50.98;98250.19;4498489;31;33167;-86
2022/11/19 02:57:20;;;;;;;;;;;;;;;8.91;48.08;98236.31;4506606;31;35045;-86
2022/11/19 03:06:00;;;;;;;;;;;;;;;9.64;46.36;98252.03;4501107;31;33399;-87
2022/11/19 03:08:27;;;;;;;;;;;;;;;10.29;45.38;98265.06;4501855;31;33685;-86
2022/11/19 03:11:00;;;;;;;;;;;;;;;10.53;45.15;98259.88;4504505;31;33894;-86
2022/11/19 03:16:42;;;;;;;;;;;;;;;11.45;43.20;98264.75;4477685;31;32864;-86
2022/11/19 03:19:15;;;;;;;;;;;;;;;11.08;43.87;98275.28;4509443;31;34096;-87
2022/11/19 03:22:06;;;;;;;;;;;;;;;11.29;43.52;98274.34;4501051;31;34445;-86
2022/11/19 03:24:35;;;;;;;;;;;;;;;9.56;46.40;98282.22;4500007;31;34073;-87
2022/11/19 03:27:05;;;;;;;;;;;;;;;9.89;45.89;98278.00;4507671;31;33070;-86
2022/11/19 03:29:34;;;;;;;;;;;;;;;10.14;45.30;98287.47;4513505;31;34266;-87
2022/11/19 03:32:03;;;;;;;;;;;;;;;9.34;47.11;98301.13;4486756;31;34388;-86
2022/11/19 03:34:30;;;;;;;;;;;;;;;9.46;46.81;98298.56;4498988;31;34710;-87
2022/11/19 03:36:58;;;;;;;;;;;;;;;9.94;45.80;98296.97;4500473;31;33786;-87
2022/11/19 03:39:25;;;;;;;;;;;;;;;9.81;45.96;98303.88;4514661;31;35021;-87
2022/11/19 03:41:53;;;;;;;;;;;;;;;10.46;44.64;98297.03;4513789;31;34481;-87
2022/11/19 03:44:24;;;;;;;;;;;;;;;10.31;45.05;98316.03;4514593;31;35116;-87
2022/11/19 03:46:53;;;;;;;;;;;;;;;10.29;44.80;98311.69;4498328;31;33361;-87
2022/11/19 03:49:21;;;;;;;;;;;;;;;10.35;44.68;98311.72;4500127;31;34182;-86
2022/11/19 03:52:02;;;;;;;;;;;;;;;10.61;44.16;98307.38;4501317;31;35094;-86
2022/11/19 03:54:29;;;;;;;;;;;;;;;10.99;43.31;98314.22;4515974;31;33892;-85
2022/11/19 03:56:57;;;;;;;;;;;;;;;10.83;43.47;98315.09;4507593;31;34322;-86
2022/11/19 03:59:24;;;;;;;;;;;;;;;11.01;43.07;98319.38;4506676;31;35002;-85
2022/11/19 04:01:57;;;;;;;;;;;;;;;10.45;43.91;98327.25;4502094;31;35205;-86
2022/11/19 04:04:37;;;;;;;;;;;;;;;9.91;44.42;98330.63;4498624;31;35419;-87
2022/11/19 04:07:04;;;;;;;;;;;;;;;10.73;43.60;98326.38;4500031;31;32995;-85
2022/11/19 04:09:31;;;;;;;;;;;;;;;11.16;42.72;98322.78;4508757;31;33774;-86
2022/11/19 04:11:58;;;;;;;;;;;;;;;11.39;41.88;98338.28;4491379;31;34938;-85
2022/11/19 04:14:26;;;;;;;;;;;;;;;11.39;41.90;98347.81;4508925;31;33827;-86
2022/11/19 04:16:53;;;;;;;;;;;;;;;11.40;41.51;98349.53;4505813;31;33300;-86
2022/11/19 04:19:20;;;;;;;;;;;;;;;11.49;41.42;98352.09;4514817;31;34167;-86
2022/11/19 04:21:48;;;;;;;;;;;;;;;11.43;41.61;98355.56;4504311;31;34609;-85
2022/11/19 04:24:15;;;;;;;;;;;;;;;11.42;41.42;98358.19;4500541;31;34115;-86
2022/11/19 04:26:43;;;;;;;;;;;;;;;11.57;41.27;98363.31;4499658;31;32818;-86
2022/11/19 04:29:10;;;;;;;;;;;;;;;11.64;41.07;98383.19;4505725;31;34243;-85
2022/11/19 04:31:37;;;;;;;;;;;;;;;11.15;41.59;98382.47;4505014;31;35271;-86
2022/11/19 04:34:04;;;;;;;;;;;;;;;11.34;41.53;98388.47;4512475;31;34762;-86
2022/11/19 04:36:31;;;;;;;;;;;;;;;11.32;41.57;98382.41;4504966;31;33997;-86
2022/11/19 04:38:59;;;;;;;;;;;;;;;11.56;41.06;98390.16;4501246;31;34098;-85
2022/11/19 04:41:26;;;;;;;;;;;;;;;11.81;40.17;98395.22;4505830;31;34046;-85
2022/11/19 04:43:57;;;;;;;;;;;;;;;11.56;40.71;98403.13;4505080;31;33909;-84
2022/11/19 04:46:27;;;;;;;;;;;;;;;11.37;41.33;98417.03;4502239;31;34267;-84
2022/11/19 04:48:55;;;;;;;;;;;;;;;11.38;41.36;98421.34;4502303;31;34022;-84
2022/11/19 04:51:22;;;;;;;;;;;;;;;11.48;40.67;98425.66;4511069;31;35265;-86
2022/11/19 04:53:49;;;;;;;;;;;;;;;11.55;40.65;98436.84;4506288;31;32755;-85
2022/11/19 04:56:17;;;;;;;;;;;;;;;11.55;40.58;98436.84;4500387;31;33742;-86
2022/11/19 04:58:44;;;;;;;;;;;;;;;11.25;40.79;98458.53;4510002;31;34364;-85
2022/11/19 05:01:11;;;;;;;;;;;;;;;11.42;40.60;98459.41;4503057;31;35342;-86
2022/11/19 05:03:40;;;;;;;;;;;;;;;11.73;40.17;98464.50;4511464;31;33917;-86
2022/11/19 05:06:08;;;;;;;;;;;;;;;11.63;40.47;98469.75;4506933;31;33099;-86
2022/11/19 05:08:36;;;;;;;;;;;;;;;11.61;40.43;98466.28;4505732;31;34121;-85
2022/11/19 05:11:03;;;;;;;;;;;;;;;11.78;39.95;98475.72;4514995;31;34325;-87
2022/11/19 05:13:30;;;;;;;;;;;;;;;11.47;40.75;98468.03;4505667;31;33812;-86
2022/11/19 05:15:57;;;;;;;;;;;;;;;11.57;40.83;98472.34;4511811;31;34120;-87
2022/11/19 05:18:24;;;;;;;;;;;;;;;11.45;41.08;98467.19;4515263;31;34929;-87
2022/11/19 05:20:52;;;;;;;;;;;;;;;11.11;41.59;98476.75;4513980;31;35111;-88
2022/11/19 05:23:19;;;;;;;;;;;;;;;10.95;42.02;98481.06;4509194;31;33812;-87
2022/11/19 05:25:47;;;;;;;;;;;;;;;10.89;42.33;98486.25;4514948;31;34289;-88
2022/11/19 05:28:14;;;;;;;;;;;;;;;11.36;41.47;98491.41;4512657;31;33971;-88
2022/11/19 05:30:41;;;;;;;;;;;;;;;10.97;41.68;98487.09;4504663;31;35686;-87
2022/11/19 05:33:08;;;;;;;;;;;;;;;11.17;41.63;98482.78;4514266;31;34997;-87
2022/11/19 05:35:36;;;;;;;;;;;;;;;10.91;41.85;98476.72;4499260;31;34094;-86
2022/11/19 05:38:03;;;;;;;;;;;;;;;10.93;41.93;98482.78;4499006;31;33784;-87
2022/11/19 05:40:30;;;;;;;;;;;;;;;11.11;41.97;98500.09;4498966;31;35237;-86
2022/11/19 05:43:02;;;;;;;;;;;;;;;11.30;41.57;98500.94;4501921;31;34914;-86
2022/11/19 05:45:29;;;;;;;;;;;;;;;11.62;40.58;98506.94;4501090;31;34069;-85
2022/11/19 05:47:56;;;;;;;;;;;;;;;11.54;40.94;98513.88;4504810;31;33901;-86
2022/11/19 05:50:23;;;;;;;;;;;;;;;11.66;40.24;98508.66;4502599;31;35191;-86
2022/11/19 05:52:51;;;;;;;;;;;;;;;11.46;40.65;98526.00;4498807;31;34151;-86
2022/11/19 05:55:19;;;;;;;;;;;;;;;11.40;40.83;98520.81;4498973;31;33279;-86
2022/11/19 05:57:46;;;;;;;;;;;;;;;11.50;40.47;98522.53;4499046;31;34057;-87
2022/11/19 06:00:15;;;;;;;;;;;;;;;11.15;41.23;98528.63;4503223;31;34373;-86
2022/11/19 06:02:42;;;;;;;;;;;;;;;11.04;41.43;98535.53;4504710;31;34184;-85
2022/11/19 06:05:09;;;;;;;;;;;;;;;11.36;40.62;98545.91;4503084;31;33303;-85
2022/11/19 06:07:37;;;;;;;;;;;;;;;11.35;40.87;98549.38;4505319;31;34986;-85
2022/11/19 06:10:04;;;;;;;;;;;;;;;11.20;40.90;98557.16;4506076;31;35256;-85
2022/11/19 06:12:31;;;;;;;;;;;;;;;10.89;41.67;98553.66;4510682;31;34201;-84
2022/11/19 06:15:00;;;;;;;;;;;;;;;10.85;41.69;98552.78;4506596;31;33158;-84
2022/11/19 06:17:28;;;;;;;;;;;;;;;9.75;43.54;98568.72;4503938;31;34828;-86
2022/11/19 06:19:55;;;;;;;;;;;;;;;9.88;43.35;98579.16;4504880;31;34197;-85
2022/11/19 06:22:22;;;;;;;;;;;;;;;10.16;43.17;98580.19;4506989;31;33873;-83
2022/11/19 06:24:50;;;;;;;;;;;;;;;10.56;41.64;98586.41;4505496;31;34321;-85
2022/11/19 06:27:17;;;;;;;;;;;;;;;10.17;43.04;98567.22;4507838;31;33551;-84
2022/11/19 06:29:44;;;;;;;;;;;;;;;10.41;42.70;98578.56;4512685;31;34346;-85
2022/11/19 06:32:12;;;;;;;;;;;;;;;10.34;43.04;98579.41;4501192;31;34907;-85
2022/11/19 06:34:39;;;;;;;;;;;;;;;10.49;42.72;98574.28;4513356;31;32974;-85
2022/11/19 06:37:06;;;;;;;;;;;;;;;10.49;42.84;98587.25;4501010;31;33601;-86
2022/11/19 06:39:33;;;;;;;;;;;;;;;10.28;43.33;98594.94;4498793;31;33820;-84
2022/11/19 06:42:34;;;;;;;;;;;;;;;10.33;43.01;98591.50;4504109;31;33859;-84
2022/11/19 06:44:54;;;;;;;;;;;;;;;10.58;42.71;98599.41;4502263;31;32630;-85
2022/11/19 06:47:21;;;;;;;;;;;;;;;10.32;43.03;98597.56;4505224;31;33995;-86
2022/11/19 06:49:48;;;;;;;;;;;;;;;9.96;43.80;98605.94;4504694;31;34194;-85
2022/11/19 06:52:16;;;;;;;;;;;;;;;10.25;43.86;98600.97;4504316;31;34301;-86
2022/11/19 06:54:43;;;;;;;;;;;;;;;9.59;44.97;98605.72;4505687;31;32698;-86
2022/11/19 06:57:10;;;;;;;;;;;;;;;9.89;44.54;98606.78;4503969;31;33936;-85
2022/11/19 06:59:37;;;;;;;;;;;;;;;10.37;43.57;98601.03;4505780;31;34912;-87
2022/11/19 07:02:05;;;;;;;;;;;;;;;10.17;43.56;98597.44;4506524;31;34920;-85
2022/11/19 07:04:32;;;;;;;;;;;;;;;10.62;42.93;98603.72;4508283;31;34140;-86
2022/11/19 07:07:00;;;;;;;;;;;;;;;10.15;43.81;98604.31;4498507;31;34401;-83
2022/11/19 07:09:27;;;;;;;;;;;;;;;9.11;45.86;98612.19;4500903;31;35293;-87
2022/11/19 07:11:54;;;;;;;;;;;;;;;9.48;45.40;98609.94;4513539;31;34776;-87
2022/11/19 07:14:21;;;;;;;;;;;;;;;8.19;48.68;98628.31;4515477;31;33100;-86
2022/11/19 07:16:49;;;;;;;;;;;;;;;7.12;64.00;98637.81;4515684;31;34327;-86
2022/11/19 07:19:16;;;;;;;;;;;;;;;8.03;54.17;98635.84;4513148;31;35977;-93
2022/11/19 07:21:44;;;;;;;;;;;;;;;7.36;56.82;98636.50;4500560;31;35063;-87
2022/11/19 07:24:14;;;;;;;;;;;;;;;8.60;49.52;98634.06;4500211;31;33973;-86
2022/11/19 07:26:41;;;;;;;;;;;;;;;8.30;48.56;98634.50;4500420;31;34853;-87
2022/11/19 07:29:09;;;;;;;;;;;;;;;7.29;50.71;98641.56;4514757;31;34521;-87
2022/11/19 07:31:36;;;;;;;;;;;;;;;8.45;48.15;98650.22;4513123;31;33893;-88
2022/11/19 07:34:07;;;;;;;;;;;;;;;9.14;46.34;98632.91;4510272;31;33987;-87
2022/11/19 07:36:34;;;;;;;;;;;;;;;9.41;45.56;98639.19;4499986;31;33977;-87
2022/11/19 07:39:02;;;;;;;;;;;;;;;8.77;46.95;98645.44;4514062;31;35326;-87
2022/11/19 07:44:15;;;;;;;;;;;;;;;8.45;47.55;98637.31;4515813;31;33377;-88
2022/11/19 07:46:42;;;;;;;;;;;;;;;7.95;49.79;98640.00;4512013;31;34250;-84
2022/11/19 07:49:10;;;;;;;;;;;;;;;7.61;49.97;98632.59;4500613;31;32909;-89
2022/11/19 07:51:37;;;;;;;;;;;;;;;7.28;50.89;98634.66;4500251;31;34063;-88
2022/11/19 07:54:04;;;;;;;;;;;;;;;7.32;51.16;98628.72;4505488;31;33340;-86
2022/11/19 07:56:31;;;;;;;;;;;;;;;7.31;51.03;98639.00;4507071;31;33554;-87
2022/11/19 07:58:59;;;;;;;;;;;;;;;7.74;49.58;98640.56;4514919;31;34310;-87
2022/11/19 08:01:26;;;;;;;;;;;;;;;7.85;49.72;98643.31;4512612;31;34560;-88
2022/11/19 08:03:54;;;;;;;;;;;;;;;8.59;47.80;98634.88;4505581;31;33208;-88
2022/11/19 08:06:23;;;;;;;;;;;;;;;8.49;48.04;98638.22;4507374;31;34310;-87
2022/11/19 08:08:51;;;;;;;;;;;;;;;8.04;49.31;98636.72;4503039;31;34252;-89
2022/11/19 08:11:18;;;;;;;;;;;;;;;7.83;49.06;98638.97;4505458;31;34132;-85
2022/11/19 08:13:45;;;;;;;;;;;;;;;8.71;46.75;98634.16;4506733;31;33194;-89
2022/11/19 08:19:01;;;;;;;;;;;;;;;9.16;45.50;98638.09;4500476;31;35023;-88
2022/11/19 08:21:28;;;;;;;;;;;;;;;9.41;45.05;98646.97;4501135;31;34482;-88
2022/11/19 08:23:55;;;;;;;;;;;;;;;9.16;45.89;98654.47;4513224;31;34254;-88
2022/11/19 08:26:22;;;;;;;;;;;;;;;9.65;44.68;98667.00;4502021;31;34183;-90
2022/11/19 08:28:49;;;;;;;;;;;;;;;8.82;46.56;98667.87;4514895;31;34472;-90
2022/11/19 08:31:18;;;;;;;;;;;;;;;9.10;46.20;98669.94;4508064;31;33869;-86
2022/11/19 08:33:45;;;;;;;;;;;;;;;9.60;45.59;98666.97;4498637;31;33255;-87
2022/11/19 08:36:12;;;;;;;;;;;;;;;9.83;45.29;98679.22;4508567;31;33939;-88
2022/11/19 08:38:39;;;;;;;;;;;;;;;8.84;47.57;98687.75;4499962;31;34058;-88
2022/11/19 08:43:53;;;;;;;;;;;;;;;8.66;47.94;98688.38;4499372;31;33204;-87
2022/11/19 08:46:20;;;;;;;;;;;;;;;7.96;49.98;98701.16;4499566;31;34523;-89
2022/11/19 08:48:47;;;;;;;;;;;;;;;7.62;48.80;98698.88;4499372;31;35103;-87
2022/11/19 08:51:15;;;;;;;;;;;;;;;8.26;48.68;98707.63;4499330;31;34912;-86
2022/11/19 08:53:42;;;;;;;;;;;;;;;8.43;47.93;98694.97;4513666;31;34696;-88
2022/11/19 08:56:09;;;;;;;;;;;;;;;8.36;47.69;98682.78;4515272;31;34141;-87
2022/11/19 08:58:44;;;;;;;;;;;;;;;8.04;48.17;98680.59;4515188;31;35128;-88
2022/11/19 09:01:11;;;;;;;;;;;;;;;6.47;52.84;98722.38;4512791;31;34474;-87
2022/11/19 09:03:39;;;;;;;;;;;;;;;7.20;52.16;98748.81;4515145;31;33473;-88
2022/11/19 09:06:06;;;;;;;;;;;;;;;7.22;52.05;98760.88;4515512;31;34997;-89
2022/11/19 09:08:33;;;;;;;;;;;;;;;8.95;47.56;98761.13;4515251;31;34279;-87
2022/11/19 09:11:04;;;;;;;;;;;;;;;9.02;46.82;98769.84;4515405;31;34178;-88
2022/11/19 09:13:32;;;;;;;;;;;;;;;8.94;47.60;98772.31;4515460;31;33082;-88
2022/11/19 09:15:59;;;;;;;;;;;;;;;9.16;46.06;98778.59;4515373;31;33696;-88
2022/11/19 09:18:26;;;;;;;;;;;;;;;8.71;47.45;98774.59;4515232;31;34034;-89
2022/11/19 09:20:54;;;;;;;;;;;;;;;8.42;47.06;98776.75;4515570;31;33915;-88
2022/11/19 09:23:22;;;;;;;;;;;;;;;8.91;47.88;98761.94;4514326;31;32007;-88
2022/11/19 09:25:56;;;;;;;;;;;;;;;8.63;47.05;98767.56;4514046;31;33946;-87
2022/11/19 09:28:24;;;;;;;;;;;;;;;7.77;50.16;98761.91;4515289;31;35322;-88
2022/11/19 09:31:00;;;;;;;;;;;;;;;8.67;47.17;98767.63;4515226;31;33727;-88
2022/11/19 09:33:28;;;;;;;;;;;;;;;9.36;46.15;98770.25;4514660;31;34253;-88
2022/11/19 09:35:55;;;;;;;;;;;;;;;8.91;46.83;98761.94;4513866;31;34886;-87
2022/11/19 09:38:22;;;;;;;;;;;;;;;9.26;45.68;98754.59;4515094;31;35070;-88
2022/11/19 09:40:53;;;;;;;;;;;;;;;9.55;45.75;98761.81;4515167;31;33995;-88
2022/11/19 09:43:30;;;;;;;;;;;;;;;8.94;47.43;98781.75;4515068;31;33448;-88
2022/11/19 09:46:00;;;;;;;;;;;;;;;9.58;46.13;98773.91;4513536;31;35720;-88
2022/11/19 09:48:32;;;;;;;;;;;;;;;8.66;46.80;98790.88;4513956;31;34441;-88
2022/11/19 09:51:01;;;;;;;;;;;;;;;10.09;44.04;98795.97;4513778;31;33666;-88
2022/11/19 09:53:30;;;;;;;;;;;;;;;9.39;45.50;98791.81;4514001;31;33325;-88
2022/11/19 09:55:58;;;;;;;;;;;;;;;9.55;45.79;98792.88;4513442;31;34253;-87
2022/11/19 09:58:27;;;;;;;;;;;;;;;9.72;45.43;98793.03;4513674;31;34382;-87
2022/11/19 10:00:54;;;;;;;;;;;;;;;10.02;44.80;98789.00;4513617;31;34284;-88
2022/11/19 10:03:22;;;;;;;;;;;;;;;8.83;46.79;98799.75;4514969;31;33780;-88
2022/11/19 10:06:11;;;;;;;;;;;;;;;9.44;46.90;98781.53;4513814;31;35037;-88
2022/11/19 10:08:57;;;;;;;;;;;;;;;8.70;47.13;98784.91;4514973;31;33528;-88
2022/11/19 10:11:30;;;;;;;;;;;;;;;9.33;46.12;98786.59;4515043;31;34439;-87
2022/11/19 10:14:14;;;;;;;;;;;;;;;7.98;49.18;98778.59;4514834;31;33345;-87
2022/11/19 10:16:41;;;;;;;;;;;;;;;8.62;47.78;98777.03;4513878;31;34304;-88
2022/11/19 10:19:08;;;;;;;;;;;;;;;9.34;46.57;98771.91;4515149;31;34170;-88
2022/11/19 10:21:54;;;;;;;;;;;;;;;8.83;48.26;98773.91;4514870;31;34002;-87
2022/11/19 10:24:38;;;;;;;;;;;;;;;9.17;46.70;98759.69;4515082;31;33834;-88
2022/11/19 10:27:11;;;;;;;;;;;;;;;9.77;45.44;98760.28;4513212;31;34773;-87
2022/11/19 10:29:39;;;;;;;;;;;;;;;9.29;45.79;98760.66;4514363;31;34020;-86
2022/11/19 10:32:15;;;;;;;;;;;;;;;9.70;45.03;98761.09;4514755;31;33712;-85
2022/11/19 10:34:43;;;;;;;;;;;;;;;9.51;45.59;98757.47;4514674;31;33140;-87
2022/11/19 10:37:10;;;;;;;;;;;;;;;10.42;43.93;98759.13;4514651;31;34210;-89
2022/11/19 10:39:38;;;;;;;;;;;;;;;10.08;45.23;98758.84;4511577;31;34160;-89
2022/11/19 10:42:09;;;;;;;;;;;;;;;10.05;44.61;98765.72;4512044;31;33853;-88
2022/11/19 10:44:40;;;;;;;;;;;;;;;8.87;46.07;98765.34;4514406;31;33416;-88
2022/11/19 10:47:27;;;;;;;;;;;;;;;8.64;47.30;98765.03;4516188;31;35010;-88
2022/11/19 10:49:55;;;;;;;;;;;;;;;8.38;48.50;98764.66;4515953;31;35212;-87
2022/11/19 10:52:22;;;;;;;;;;;;;;;9.12;47.01;98760.44;4515199;31;33706;-86
2022/11/19 10:54:49;;;;;;;;;;;;;;;7.63;50.79;98759.94;4516398;31;32958;-87
2022/11/19 10:57:17;;;;;;;;;;;;;;;8.77;48.01;98761.75;4514789;31;34588;-87
2022/11/19 10:59:45;;;;;;;;;;;;;;;8.18;49.45;98766.91;4516325;31;34340;-87
2022/11/19 11:02:21;;;;;;;;;;;;;;;7.72;50.78;98768.69;4515208;31;34925;-87
2022/11/19 11:04:58;;;;;;;;;;;;;;;8.56;49.35;98779.56;4514697;31;33575;-88
2022/11/19 11:07:42;;;;;;;;;;;;;;;8.43;49.69;98782.78;4516311;31;34912;-86
2022/11/19 11:10:22;;;;;;;;;;;;;;;8.83;48.63;98794.56;4515157;31;33774;-88
2022/11/19 11:15:38;;;;;;;;;;;;;;;9.37;46.69;98793.53;4515195;31;34225;-88
2022/11/19 11:18:06;;;;;;;;;;;;;;;10.13;44.87;98792.56;4514967;31;34387;-87
2022/11/19 11:20:35;;;;;;;;;;;;;;;9.59;45.05;98788.59;4514823;31;35255;-87
2022/11/19 11:23:08;;;;;;;;;;;;;;;9.13;46.42;98799.28;4514900;31;33772;-86
2022/11/19 11:25:35;;;;;;;;;;;;;;;9.31;46.69;98808.09;4514726;31;33468;-88
2022/11/19 11:28:16;;;;;;;;;;;;;;;9.87;45.66;98805.25;4514623;31;34143;-87
2022/11/19 11:30:54;;;;;;;;;;;;;;;9.67;45.31;98808.53;4516053;31;33696;-88
2022/11/19 11:33:21;;;;;;;;;;;;;;;10.17;44.75;98805.53;4516047;31;34247;-87
2022/11/19 11:35:48;;;;;;;;;;;;;;;10.39;45.09;98808.34;4516129;31;34173;-87
2022/11/19 11:38:16;;;;;;;;;;;;;;;9.62;45.49;98799.84;4514775;31;34183;-89
2022/11/19 11:41:06;;;;;;;;;;;;;;;10.51;43.97;98789.44;4515706;31;34391;-88
2022/11/19 11:44:00;;;;;;;;;;;;;;;8.85;47.21;98794.59;4514674;31;34014;-88
2022/11/19 11:46:34;;;;;;;;;;;;;;;8.80;47.82;98798.84;4514749;31;34124;-87
2022/11/19 11:49:01;;;;;;;;;;;;;;;9.73;45.78;98793.03;4514849;31;34873;-88
2022/11/19 11:51:40;;;;;;;;;;;;;;;9.60;45.45;98798.94;4514832;31;34423;-87
2022/11/19 11:54:15;;;;;;;;;;;;;;;10.34;44.02;98791.88;4515986;31;34983;-89
2022/11/19 11:56:45;;;;;;;;;;;;;;;10.31;43.72;98781.50;4515259;31;34027;-87
2022/11/19 11:59:32;;;;;;;;;;;;;;;10.11;45.41;98787.34;4514821;31;34231;-88
2022/11/19 12:02:04;;;;;;;;;;;;;;;9.09;47.34;98799.19;4515999;31;34440;-88
2022/11/19 12:04:32;;;;;;;;;;;;;;;10.71;42.95;98787.81;4514646;31;34339;-88
2022/11/19 12:07:02;;;;;;;;;;;;;;;10.39;43.88;98785.88;4515709;31;33255;-87
2022/11/19 12:09:32;;;;;;;;;;;;;;;9.88;45.50;98788.87;4515898;31;34066;-88
2022/11/19 12:12:08;;;;;;;;;;;;;;;9.98;44.90;98788.97;4515831;31;34327;-87
2022/11/19 12:14:35;;;;;;;;;;;;;;;10.34;43.34;98776.31;4514482;31;34878;-87
2022/11/19 12:17:08;;;;;;;;;;;;;;;10.56;43.24;98772.16;4515810;31;33445;-90
2022/11/19 12:19:35;;;;;;;;;;;;;;;11.12;42.51;98771.59;4515875;31;34068;-87
2022/11/19 12:22:08;;;;;;;;;;;;;;;11.14;43.35;98781.16;4515113;31;34297;-88
2022/11/19 12:24:40;;;;;;;;;;;;;;;10.68;42.26;98767.94;4508592;31;34905;-87
2022/11/19 12:27:26;;;;;;;;;;;;;;;10.37;44.02;98772.03;4514568;31;34211;-86
2022/11/19 12:30:01;;;;;;;;;;;;;;;10.09;45.50;98773.53;4515931;31;33955;-88
2022/11/19 12:32:34;;;;;;;;;;;;;;;9.24;46.92;98766.66;4515682;31;35161;-87
2022/11/19 12:35:03;;;;;;;;;;;;;;;9.77;45.61;98768.03;4515715;31;33875;-88
2022/11/19 12:37:40;;;;;;;;;;;;;;;10.27;44.73;98756.44;4514274;31;33140;-88
2022/11/19 12:40:26;;;;;;;;;;;;;;;9.84;45.56;98756.03;4515562;31;34557;-88
2022/11/19 12:43:00;;;;;;;;;;;;;;;10.07;44.15;98746.72;4515894;31;35204;-87
2022/11/19 12:45:35;;;;;;;;;;;;;;;9.52;46.07;98742.81;4515512;31;33977;-87
2022/11/19 12:48:21;;;;;;;;;;;;;;;8.01;48.38;98766.59;4515324;31;34329;-86
2022/11/19 12:51:03;;;;;;;;;;;;;;;9.51;46.09;98762.62;4515501;31;35111;-88
2022/11/19 12:53:31;;;;;;;;;;;;;;;9.68;45.68;98768.84;4515407;31;34485;-88
2022/11/19 12:55:58;;;;;;;;;;;;;;;10.20;43.92;98763.25;4515366;31;34264;-87
2022/11/19 12:58:44;;;;;;;;;;;;;;;10.22;45.11;98767.56;4514509;31;34252;-88
2022/11/19 13:01:12;;;;;;;;;;;;;;;9.62;45.27;98779.16;4499690;31;35025;-87
2022/11/19 13:03:49;;;;;;;;;;;;;;;10.91;41.58;98770.66;4511113;31;35153;-88
2022/11/19 13:06:21;;;;;;;;;;;;;;;11.30;41.64;98763.91;4514714;31;35024;-87
2022/11/19 13:08:50;;;;;;;;;;;;;;;10.65;42.44;98767.91;4508772;31;33271;-88
2022/11/19 13:11:35;;;;;;;;;;;;;;;11.25;41.69;98764.72;4514101;31;34794;-89
2022/11/19 13:14:08;;;;;;;;;;;;;;;11.47;40.48;98753.56;4513693;31;34430;-88
2022/11/19 13:16:35;;;;;;;;;;;;;;;10.92;42.09;98753.38;4515333;31;34307;-87
2022/11/19 13:19:12;;;;;;;;;;;;;;;11.60;40.99;98763.12;4515436;31;33527;-88
2022/11/19 13:21:42;;;;;;;;;;;;;;;11.04;41.87;98768.97;4514904;31;33998;-88
2022/11/19 13:24:35;;;;;;;;;;;;;;;10.37;43.33;98778.94;4513850;31;34002;-88
2022/11/19 13:27:05;;;;;;;;;;;;;;;10.50;42.76;98783.38;4491358;31;34249;-88
2022/11/19 13:29:32;;;;;;;;;;;;;;;11.42;40.46;98782.09;4513940;31;33439;-88
2022/11/19 13:32:18;;;;;;;;;;;;;;;12.00;39.59;98772.72;4515439;31;35009;-88